LPCS

Details ICAO LPCS
Name CASCAIS
Region Portugal
Timezone Europe/Lisbon (UTC+1.0)
Plans Departing 165
Arriving 48
Stats Elevation 326 ft / 99 m (AMSL)
Location 38.725175° -9.355256°
Runways 1
Magnetic Variation 2.381° W
Sunrise 2018-05-21 05:22:07 UTC / 2018-05-21 06:22:07 Local
Sunset 2018-05-21 19:48:45 UTC / 2018-05-21 20:48:45 Local
Advertisement - Login to hide

Runways

ID Width Length Bearing (true) Bearing (mag) Surface Threshold Offset Overrun Length
17 98 ft / 30 m 5,664 ft / 1,726 m 164.14° 166.52° Asphalt 354 ft / 108 m 0 ft / 0 m
35 98 ft / 30 m 5,664 ft / 1,726 m 344.14° 346.52° Asphalt 574 ft / 175 m 0 ft / 0 m

Map

Weather


0- 5 10 15 20 25 30 35+ Temperature / ° C

Clouds and Precipitation
Forecast for 2018-05-21 18:00 UTC. Updated an hour ago

Ground ~20,000 ft ~40,000 ft Winds

METAR

LPCS 211830Z 27007KT 240V300 9999 SCT017 16/12 Q1013

TAF

Not found

Frequencies

Ground 121.82 MHz GND
Tower 119.90 MHz TWR
Tower 120.30 MHz TWR
Warning: Do not use this data for real-world aviation or navigation. No guarantee of current accuracy is given.